Pokrovskaja, Russia
Current Conditions -  °F | °C
As of 10:30 AM on Saturday 25 Oct 2014 (Local Time) from UEEE Reporting Station
Haze Haze  
Wind Chill: -6°   Ceiling: Unl
Heat Index: -6°   Visibility: 3mi
Dew Point: -9°   Wind: 0mph
Humidity: 84%   Direction: NA
Pressure: 30.24"   Gusts: NA
Location:  61.48°N, 129.15°E
Report Text: UEEE 250130Z 00000MPS 5000 BR SCT200 M21/M23 Q1024 NOSIG RMKQFE759 23490150
Loading
Personal Weather Stations






























Interactive Weather Map
Tropical Storm Tracking
New forecast layout! Learn more

10-Day Weather Forecast

Advertisements
Track Severe Weather on mobile